In Rescue
 
Open Full Screen Window  High Contrast Mode
January 28, 2020 10:28 PM CST
Weather Information
Wind Direction
  ---
Wind Speed
  00 kt (0 mph)
Wind Gust
  00 kt (0 mph)
Altimeter
30.14 in
Visibility
10 SM
Temperature
-08° C
18° F
Dewpoint
-11° C
12° F
Humidity
79%
1hr Rain Fall
00.00 in.
24hr Rain Fall
00.00 in.
Sky Condition
Overcast @ 2,000 ft
MVFR

METAR KMZH 290428Z AUTO 00000KT 10SM OVC020 M08/M11 A3014 RMK AO2

FAA Disclaimer: The data displayed is for advisory purposes only and is not to be used for flight planning or operations.